createdAt,value
2023-01-28T00:01:27.686Z,2.80
2023-01-28T00:03:55.077Z,3.73
2023-01-28T00:06:22.448Z,3.13
2023-01-28T00:08:49.738Z,4.03
2023-01-28T00:11:17.055Z,3.40
2023-01-28T00:13:44.620Z,2.63
2023-01-28T00:16:11.971Z,3.67
2023-01-28T00:18:39.296Z,3.23
2023-01-28T00:21:16.059Z,3.10
2023-01-28T00:23:47.608Z,3.63
2023-01-28T00:26:15.431Z,3.22
2023-01-28T00:28:44.570Z,3.97
2023-01-28T00:31:19.873Z,4.93
2023-01-28T00:33:49.171Z,3.73
2023-01-28T00:36:17.877Z,3.83
2023-01-28T00:38:53.617Z,3.73
2023-01-28T00:41:23.732Z,3.17
2023-01-28T00:43:52.456Z,3.27
2023-01-28T00:46:21.593Z,3.80
2023-01-28T00:48:48.988Z,3.07
2023-01-28T00:51:19.878Z,3.70
2023-01-28T00:53:47.573Z,3.77
2023-01-28T00:56:16.873Z,3.13
2023-01-28T00:58:44.583Z,4.20
2023-01-28T01:01:25.043Z,3.60
2023-01-28T01:03:57.653Z,3.40
2023-01-28T01:06:25.721Z,3.13
2023-01-28T01:08:53.005Z,3.10
2023-01-28T01:11:20.398Z,3.17
2023-01-28T01:13:52.876Z,3.57
2023-01-28T01:16:20.737Z,3.53
2023-01-28T01:18:51.463Z,3.03
2023-01-28T01:21:21.821Z,3.43
2023-01-28T01:23:49.675Z,3.87
2023-01-28T01:26:17.420Z,3.20
2023-01-28T01:28:45.040Z,3.10
2023-01-28T01:31:16.341Z,3.67
2023-01-28T01:33:46.609Z,2.90
2023-01-28T01:36:15.670Z,2.93
2023-01-28T01:38:43.331Z,3.53
2023-01-28T01:41:22.789Z,3.23
2023-01-28T01:43:53.424Z,3.00
2023-01-28T01:46:45.901Z,3.20
2023-01-28T01:49:24.567Z,3.38
2023-01-28T01:52:03.036Z,3.27
2023-01-28T01:54:32.488Z,2.23
2023-01-28T01:57:00.740Z,3.03
2023-01-28T01:59:31.230Z,3.00
2023-01-28T02:02:03.505Z,2.57
2023-01-28T02:04:40.858Z,2.50
2023-01-28T02:07:14.600Z,2.93
2023-01-28T02:09:42.041Z,2.63
2023-01-28T02:12:14.013Z,2.37
2023-01-28T02:20:11.275Z,3.03
2023-01-28T02:22:44.795Z,3.47
2023-01-28T02:25:32.746Z,2.43
2023-01-28T02:28:24.941Z,3.67
2023-01-28T02:30:58.770Z,2.53
2023-01-28T02:33:44.927Z,2.73
2023-01-28T02:36:24.216Z,2.00
2023-01-28T02:38:53.506Z,2.97
2023-01-28T02:41:29.871Z,2.63
2023-01-28T02:43:57.204Z,3.90
2023-01-28T02:47:01.035Z,2.47
2023-01-28T02:49:42.672Z,2.63
2023-01-28T02:52:46.266Z,2.80
2023-01-28T02:55:39.236Z,3.10
2023-01-28T02:58:37.099Z,2.93
2023-01-28T03:01:25.119Z,2.37
2023-01-28T03:04:17.571Z,3.17
2023-01-28T03:09:26.930Z,2.43
2023-01-28T03:12:21.611Z,2.40
2023-01-28T03:15:12.901Z,2.53
2023-01-28T03:18:11.920Z,2.53
2023-01-28T03:21:15.300Z,2.13
2023-01-28T03:24:19.108Z,2.33
2023-01-28T03:27:23.690Z,2.27
2023-01-28T03:30:20.333Z,2.40
2023-01-28T03:33:07.779Z,2.33
2023-01-28T03:35:54.997Z,2.27
2023-01-28T03:38:25.972Z,2.27
2023-01-28T03:41:02.773Z,2.60
2023-01-28T03:43:31.721Z,2.57
2023-01-28T03:46:00.002Z,2.17
2023-01-28T03:48:28.925Z,2.37
2023-01-28T03:50:56.846Z,3.07
2023-01-28T03:53:25.905Z,3.27
2023-01-28T03:55:54.433Z,2.77
2023-01-28T03:58:23.448Z,2.80
2023-01-28T04:00:51.849Z,2.17
2023-01-28T04:03:20.537Z,2.80
2023-01-28T04:06:07.787Z,3.47
2023-01-28T04:08:53.578Z,2.30
2023-01-28T04:11:30.993Z,2.53
2023-01-28T04:14:01.343Z,2.40
2023-01-28T04:16:38.901Z,2.90
2023-01-28T04:19:07.118Z,2.10
2023-01-28T04:21:35.694Z,2.40
2023-01-28T04:24:05.177Z,2.13
2023-01-28T04:26:33.559Z,2.90
2023-01-28T04:29:00.938Z,2.83
2023-01-28T04:31:29.099Z,2.57
2023-01-28T04:34:15.226Z,2.70
2023-01-28T04:37:04.543Z,1.90
2023-01-28T04:39:43.500Z,2.30
2023-01-28T04:42:36.981Z,2.03
2023-01-28T04:45:10.523Z,1.40
2023-01-28T04:47:48.081Z,2.10
2023-01-28T04:50:27.776Z,1.60
2023-01-28T04:53:08.151Z,1.63
2023-01-28T04:55:40.571Z,1.77
2023-01-28T04:58:07.937Z,2.13
2023-01-28T05:00:36.946Z,1.93
2023-01-28T05:03:04.896Z,1.83
2023-01-28T05:05:32.547Z,1.47
2023-01-28T05:08:13.415Z,1.60
2023-01-28T05:10:40.885Z,1.93
2023-01-28T05:13:08.825Z,1.50
2023-01-28T05:15:36.202Z,1.63
2023-01-28T05:18:03.841Z,1.77
2023-01-28T05:20:38.066Z,2.10
2023-01-28T05:23:05.581Z,1.97
2023-01-28T05:25:43.736Z,1.87
2023-01-28T05:28:11.233Z,1.60
2023-01-28T05:30:39.193Z,1.93
2023-01-28T05:33:07.323Z,1.90
2023-01-28T05:35:36.431Z,2.37
2023-01-28T05:38:04.058Z,1.57
2023-01-28T05:40:31.540Z,1.80
2023-01-28T05:42:58.900Z,1.97
2023-01-28T05:45:37.172Z,2.00
2023-01-28T05:48:19.630Z,1.63
2023-01-28T05:50:55.635Z,1.60
2023-01-28T05:53:32.518Z,1.60
2023-01-28T05:56:00.062Z,1.30
2023-01-28T05:58:32.041Z,1.67
2023-01-28T06:01:02.989Z,1.63
2023-01-28T06:03:39.225Z,1.67
2023-01-28T06:06:06.863Z,1.63
2023-01-28T06:08:34.298Z,1.50
2023-01-28T06:11:01.639Z,1.70
2023-01-28T06:13:33.314Z,1.50
2023-01-28T06:16:20.596Z,1.53
2023-01-28T06:19:09.852Z,1.27
2023-01-28T06:21:37.161Z,1.87
2023-01-28T06:24:04.776Z,1.53
2023-01-28T06:26:32.122Z,2.20
2023-01-28T06:28:59.469Z,1.70
2023-01-28T06:31:26.892Z,1.80
2023-01-28T06:33:54.207Z,1.90
2023-01-28T06:36:22.104Z,1.70
2023-01-28T06:38:49.471Z,1.70
2023-01-28T06:41:16.779Z,1.87
2023-01-28T06:43:44.151Z,2.13
2023-01-28T06:46:11.470Z,1.80
2023-01-28T06:48:38.903Z,1.83
2023-01-28T06:51:06.285Z,1.30
2023-01-28T06:53:33.606Z,1.23
2023-01-28T06:56:00.921Z,1.20
2023-01-28T06:58:28.443Z,1.37
2023-01-28T07:00:55.871Z,1.90
2023-01-28T07:03:23.280Z,1.23
2023-01-28T07:05:50.698Z,1.40
2023-01-28T07:08:18.114Z,1.90
2023-01-28T07:10:45.478Z,1.47
2023-01-28T07:13:12.802Z,1.47
2023-01-28T07:15:40.081Z,1.83
2023-01-28T07:18:07.643Z,1.40
2023-01-28T07:20:35.171Z,1.60
2023-01-28T07:23:02.549Z,1.90
2023-01-28T07:25:30.770Z,1.40
2023-01-28T07:27:58.193Z,1.67
2023-01-28T07:30:25.654Z,1.77
2023-01-28T07:32:57.106Z,1.37
2023-01-28T07:35:25.530Z,1.15
2023-01-28T07:37:58.021Z,0.93
2023-01-28T07:40:26.157Z,1.10
2023-01-28T07:42:55.495Z,1.10
2023-01-28T07:45:25.200Z,1.90
2023-01-28T07:48:01.574Z,1.33
2023-01-28T07:50:30.542Z,1.33
2023-01-28T07:52:58.583Z,1.43
2023-01-28T07:55:26.789Z,0.67
2023-01-28T07:58:06.164Z,0.87
2023-01-28T08:00:36.069Z,1.00
2023-01-28T08:03:06.684Z,0.80
2023-01-28T08:05:41.505Z,0.97
2023-01-28T08:08:09.816Z,0.63
2023-01-28T08:10:38.026Z,1.03
2023-01-28T08:13:06.360Z,0.73
2023-01-28T08:15:35.411Z,0.53
2023-01-28T08:18:04.631Z,0.90
2023-01-28T08:20:32.248Z,1.20
2023-01-28T08:23:11.851Z,1.10
2023-01-28T08:25:39.339Z,1.07
2023-01-28T08:28:07.449Z,1.40
2023-01-28T08:30:35.655Z,0.90
2023-01-28T08:33:03.004Z,1.00
2023-01-28T08:35:30.575Z,0.77
2023-01-28T08:38:01.247Z,1.30
2023-01-28T08:40:29.057Z,1.00
2023-01-28T08:42:57.488Z,1.00
2023-01-28T08:45:28.012Z,1.17
2023-01-28T08:48:01.676Z,1.00
2023-01-28T08:50:33.003Z,0.90
2023-01-28T08:53:06.112Z,0.80
2023-01-28T08:55:34.436Z,0.30
2023-01-28T08:58:06.672Z,1.13
2023-01-28T09:00:35.270Z,0.60
2023-01-28T09:03:05.782Z,0.77
2023-01-28T09:05:35.253Z,0.63
2023-01-28T09:08:07.712Z,0.60
2023-01-28T09:10:37.521Z,0.60
2023-01-28T09:13:10.261Z,0.30
2023-01-28T09:15:38.081Z,0.50
2023-01-28T09:18:06.022Z,0.87
2023-01-28T09:20:33.762Z,0.63
2023-01-28T09:23:01.992Z,0.60
2023-01-28T09:25:29.514Z,0.83
2023-01-28T09:27:58.090Z,0.60
2023-01-28T09:30:25.969Z,0.67
2023-01-28T09:32:54.301Z,1.00
2023-01-28T09:35:21.823Z,0.63
2023-01-28T09:37:49.260Z,1.60
2023-01-28T09:40:33.357Z,1.10
2023-01-28T09:43:38.418Z,1.33
2023-01-28T09:46:08.881Z,0.70
2023-01-28T09:48:39.914Z,0.73
2023-01-28T09:51:18.509Z,0.93
2023-01-28T09:53:50.407Z,0.77
2023-01-28T09:56:30.604Z,0.65
2023-01-28T09:59:15.511Z,0.60
2023-01-28T10:01:49.887Z,0.57
2023-01-28T10:04:37.371Z,0.43
2023-01-28T10:07:33.331Z,0.80
2023-01-28T10:10:13.616Z,0.77
2023-01-28T10:13:16.381Z,0.57
2023-01-28T10:18:36.084Z,0.40
2023-01-28T10:21:19.033Z,0.93
2023-01-28T10:24:01.155Z,0.67
2023-01-28T10:29:11.372Z,0.77
2023-01-28T10:31:47.481Z,0.67
2023-01-28T10:34:14.832Z,0.50
2023-01-28T10:36:43.149Z,0.53
2023-01-28T10:39:18.203Z,0.50
2023-01-28T10:41:56.970Z,0.77
2023-01-28T10:44:32.519Z,0.50
2023-01-28T10:47:04.303Z,0.70
2023-01-28T10:49:32.313Z,0.60
2023-01-28T10:51:59.634Z,0.53
2023-01-28T10:54:28.657Z,1.13
2023-01-28T10:57:10.208Z,1.20
2023-01-28T10:59:41.710Z,0.65
2023-01-28T11:02:44.571Z,1.00
2023-01-28T11:05:28.287Z,0.50
2023-01-28T11:08:10.194Z,0.60
2023-01-28T11:10:40.350Z,0.80
2023-01-28T11:13:19.922Z,0.67
2023-01-28T11:16:03.731Z,0.60
2023-01-28T11:18:39.050Z,0.70
2023-01-28T11:21:19.858Z,1.10
2023-01-28T11:24:04.099Z,0.37
2023-01-28T11:26:34.986Z,0.80
2023-01-28T11:29:02.557Z,0.77
2023-01-28T11:31:35.803Z,0.70
2023-01-28T11:34:05.842Z,0.93
2023-01-28T11:36:35.421Z,0.60
2023-01-28T11:39:17.092Z,0.90
2023-01-28T11:41:44.724Z,0.77
2023-01-28T11:44:25.091Z,0.40
2023-01-28T11:47:33.905Z,0.87
2023-01-28T11:50:28.255Z,0.87
2023-01-28T11:53:16.801Z,0.90
2023-01-28T11:56:23.931Z,1.10
2023-01-28T11:59:18.860Z,0.60
2023-01-28T12:02:02.685Z,0.97
2023-01-28T12:05:13.056Z,0.90
2023-01-28T12:08:12.882Z,0.90
2023-01-28T12:11:12.098Z,1.10
2023-01-28T12:13:51.152Z,0.70
2023-01-28T12:17:15.537Z,1.20
2023-01-28T12:20:05.662Z,0.70
2023-01-28T12:23:14.681Z,0.97
2023-01-28T12:26:31.305Z,0.80
2023-01-28T12:29:50.380Z,0.60
2023-01-28T12:32:39.326Z,2.97
2023-01-28T12:35:43.536Z,1.77
2023-01-28T12:39:03.225Z,0.83
2023-01-28T12:41:38.216Z,0.77
2023-01-28T12:44:12.049Z,0.70
2023-01-28T12:46:55.689Z,0.67
2023-01-28T12:49:37.101Z,0.90
2023-01-28T12:52:16.016Z,1.10
2023-01-28T12:55:06.679Z,1.40
2023-01-28T12:57:35.345Z,1.03
2023-01-28T13:00:19.805Z,1.23
2023-01-28T13:02:55.757Z,1.70
2023-01-28T13:05:31.154Z,0.87
2023-01-28T13:08:11.404Z,0.80
2023-01-28T13:10:46.627Z,0.83
2023-01-28T13:13:31.019Z,0.70
2023-01-28T13:15:58.652Z,0.80
2023-01-28T13:18:45.797Z,0.63
2023-01-28T13:21:49.338Z,0.50
2023-01-28T13:24:23.080Z,0.97
2023-01-28T13:26:56.365Z,1.10
2023-01-28T13:29:32.761Z,0.60
2023-01-28T13:32:03.234Z,1.20
2023-01-28T13:34:44.127Z,0.67
2023-01-28T13:37:28.092Z,1.13
2023-01-28T13:40:23.684Z,0.80
2023-01-28T13:43:03.800Z,0.90
2023-01-28T13:45:31.642Z,0.90
2023-01-28T13:48:05.873Z,0.90
2023-01-28T13:50:40.025Z,0.83
2023-01-28T13:53:39.861Z,0.53
2023-01-28T13:56:17.748Z,0.50
2023-01-28T13:59:35.154Z,0.80
2023-01-28T14:02:57.227Z,0.83
2023-01-28T14:05:58.321Z,0.43
2023-01-28T14:09:07.671Z,0.70
2023-01-28T14:12:01.242Z,0.60
2023-01-28T14:15:04.928Z,1.37
2023-01-28T14:17:53.430Z,0.60
2023-01-28T14:20:37.844Z,0.90
2023-01-28T14:23:18.267Z,0.57
2023-01-28T14:25:55.471Z,1.10
2023-01-28T14:28:49.535Z,1.20
2023-01-28T14:31:37.525Z,1.50
2023-01-28T14:34:17.016Z,0.90
2023-01-28T14:36:46.179Z,1.10
2023-01-28T14:39:23.055Z,1.00
2023-01-28T14:41:53.402Z,1.07
2023-01-28T14:44:48.241Z,1.00
2023-01-28T14:47:52.675Z,1.13
2023-01-28T14:50:34.113Z,0.87
2023-01-28T14:53:26.187Z,0.90
2023-01-28T14:56:02.968Z,0.70
2023-01-28T14:58:35.643Z,0.73
2023-01-28T15:01:03.025Z,1.10
2023-01-28T15:03:31.500Z,1.10
2023-01-28T15:06:07.302Z,0.50
2023-01-28T15:08:35.974Z,0.83
2023-01-28T15:11:05.799Z,0.80
2023-01-28T15:13:38.741Z,0.70
2023-01-28T15:16:06.900Z,0.50
2023-01-28T15:18:43.200Z,0.70
2023-01-28T15:21:10.992Z,0.73
2023-01-28T15:23:43.306Z,0.80
2023-01-28T15:26:18.110Z,0.80
2023-01-28T15:28:46.916Z,0.90
2023-01-28T15:31:28.649Z,0.70
2023-01-28T15:34:13.888Z,1.08
2023-01-28T15:36:41.582Z,0.63
2023-01-28T15:39:20.448Z,0.73
2023-01-28T15:42:16.785Z,1.37
2023-01-28T15:44:45.929Z,0.70
2023-01-28T15:47:24.656Z,0.60
2023-01-28T15:49:54.610Z,0.70
2023-01-28T15:52:31.621Z,0.60
2023-01-28T15:54:58.994Z,0.53
2023-01-28T15:57:31.165Z,0.53
2023-01-28T16:00:25.582Z,0.50
2023-01-28T16:02:55.270Z,0.50
2023-01-28T16:05:36.729Z,0.50
2023-01-28T16:08:11.874Z,0.95
2023-01-28T16:10:39.446Z,1.23
2023-01-28T16:13:28.409Z,0.87
2023-01-28T16:15:57.424Z,1.13
2023-01-28T16:18:51.767Z,0.77
2023-01-28T16:21:34.472Z,0.77
2023-01-28T16:24:07.417Z,0.73
2023-01-28T16:26:36.085Z,0.57
2023-01-28T16:29:23.625Z,0.60
2023-01-28T16:31:50.954Z,0.77
2023-01-28T16:34:18.332Z,0.73
2023-01-28T16:36:45.847Z,0.93
2023-01-28T16:39:13.220Z,0.90
2023-01-28T16:41:43.795Z,1.43
2023-01-28T16:44:15.242Z,1.83
2023-01-28T16:46:43.289Z,1.48
2023-01-28T16:49:10.859Z,2.57
2023-01-28T16:51:40.805Z,4.20
2023-01-28T16:54:12.680Z,6.03
2023-01-28T16:56:47.359Z,3.22
2023-01-28T16:59:16.475Z,3.80
2023-01-28T17:01:45.003Z,3.03
2023-01-28T17:04:13.453Z,2.43
2023-01-28T17:06:43.680Z,3.47
2023-01-28T17:09:12.644Z,3.07
2023-01-28T17:11:40.939Z,5.53
2023-01-28T17:14:09.375Z,5.70
2023-01-28T17:16:36.936Z,2.20
2023-01-28T17:19:04.422Z,0.90
2023-01-28T17:21:31.985Z,1.07
2023-01-28T17:24:00.947Z,1.37
2023-01-28T17:26:31.187Z,2.10
2023-01-28T17:28:58.489Z,1.70
2023-01-28T17:31:26.555Z,1.73
2023-01-28T17:33:55.703Z,1.73
2023-01-28T17:36:23.936Z,2.23
2023-01-28T17:38:51.671Z,2.27
2023-01-28T17:41:19.509Z,2.13
2023-01-28T17:43:56.441Z,1.27
2023-01-28T17:46:25.280Z,2.10
2023-01-28T17:48:53.025Z,1.57
2023-01-28T17:51:20.485Z,1.73
2023-01-28T17:53:49.615Z,2.20
2023-01-28T17:56:26.020Z,2.17
2023-01-28T17:58:58.420Z,2.17
2023-01-28T18:01:26.959Z,3.10
2023-01-28T18:03:55.650Z,3.00
2023-01-28T18:06:23.069Z,2.97
2023-01-28T18:08:50.830Z,2.17
2023-01-28T18:11:19.867Z,1.87
2023-01-28T18:13:47.245Z,1.50
2023-01-28T18:16:18.166Z,1.30
2023-01-28T18:18:46.010Z,1.70
2023-01-28T18:21:53.172Z,1.97
2023-01-28T18:24:23.817Z,2.23
2023-01-28T18:26:52.261Z,2.67
2023-01-28T18:29:20.876Z,2.23
2023-01-28T18:31:49.204Z,2.97
2023-01-28T18:34:18.161Z,1.93
2023-01-28T18:36:45.719Z,2.80
2023-01-28T18:39:14.253Z,2.20
2023-01-28T18:41:41.761Z,2.80
2023-01-28T18:44:11.265Z,2.33
2023-01-28T18:46:38.957Z,2.57
2023-01-28T18:49:06.335Z,3.33
2023-01-28T18:51:33.819Z,3.93
2023-01-28T18:54:03.485Z,4.60
2023-01-28T18:56:32.200Z,2.90
2023-01-28T18:59:02.017Z,2.27
2023-01-28T19:01:30.745Z,2.90
2023-01-28T19:03:59.132Z,3.47
2023-01-28T19:06:28.681Z,9.27
2023-01-28T19:08:59.096Z,6.20
2023-01-28T19:11:29.656Z,4.87
2023-01-28T19:13:57.230Z,3.87
2023-01-28T19:16:24.987Z,5.10
2023-01-28T19:18:54.573Z,3.50
2023-01-28T19:21:22.838Z,3.30
2023-01-28T19:23:58.527Z,4.43
2023-01-28T19:26:27.193Z,4.20
2023-01-28T19:28:54.598Z,5.23
2023-01-28T19:31:23.523Z,6.07
2023-01-28T19:33:55.426Z,5.23
2023-01-28T19:36:24.449Z,3.15
2023-01-28T19:38:53.141Z,3.63
2023-01-28T19:41:20.477Z,2.37
2023-01-28T19:43:48.522Z,3.10
2023-01-28T19:46:17.658Z,4.80
2023-01-28T19:48:45.551Z,5.07
2023-01-28T19:51:14.043Z,2.97
2023-01-28T19:53:42.789Z,2.93
2023-01-28T19:56:12.984Z,3.67
2023-01-28T19:58:42.735Z,3.60
2023-01-28T20:01:21.949Z,3.83
2023-01-28T20:03:55.041Z,3.13
2023-01-28T20:06:23.845Z,3.87
2023-01-28T20:08:53.068Z,2.73
2023-01-28T20:11:20.979Z,3.87
2023-01-28T20:13:49.645Z,3.27
2023-01-28T20:16:23.318Z,3.00
2023-01-28T20:18:52.612Z,3.03
2023-01-28T20:21:20.518Z,4.43
2023-01-28T20:23:50.006Z,3.03
2023-01-28T20:26:21.133Z,3.40
2023-01-28T20:28:49.815Z,3.65
2023-01-28T20:31:17.984Z,3.60
2023-01-28T20:33:45.754Z,3.63
2023-01-28T20:36:14.101Z,3.33
2023-01-28T20:38:43.995Z,3.50
2023-01-28T20:41:20.516Z,3.50
2023-01-28T20:43:49.754Z,3.43
2023-01-28T20:46:22.470Z,3.50
2023-01-28T20:48:50.421Z,4.00
2023-01-28T20:51:23.424Z,3.70
2023-01-28T20:53:51.569Z,3.70
2023-01-28T20:56:22.050Z,4.27
2023-01-28T20:58:55.193Z,3.97
2023-01-28T21:01:27.991Z,3.50
2023-01-28T21:03:56.173Z,3.77
2023-01-28T21:06:24.372Z,4.07
2023-01-28T21:08:53.182Z,3.73
2023-01-28T21:11:21.773Z,3.90
2023-01-28T21:13:50.096Z,5.07
2023-01-28T21:16:17.983Z,5.63
2023-01-28T21:18:45.504Z,4.97
2023-01-28T21:21:18.771Z,3.37
2023-01-28T21:23:46.339Z,5.73
2023-01-28T21:26:15.519Z,3.80
2023-01-28T21:28:43.869Z,4.90
2023-01-28T21:31:18.294Z,4.10
2023-01-28T21:33:56.905Z,3.93
2023-01-28T21:36:25.632Z,3.93
2023-01-28T21:38:59.228Z,4.13
2023-01-28T21:41:27.725Z,3.43
2023-01-28T21:43:57.273Z,3.23
2023-01-28T21:46:32.683Z,3.33
2023-01-28T21:49:01.923Z,2.87
2023-01-28T21:51:35.844Z,4.93
2023-01-28T21:54:04.544Z,3.80
2023-01-28T21:56:31.912Z,4.83
2023-01-28T21:59:17.902Z,4.33
2023-01-28T22:01:45.724Z,4.53
2023-01-28T22:04:13.619Z,4.23
2023-01-28T22:06:42.404Z,3.33
2023-01-28T22:09:11.972Z,3.80
2023-01-28T22:11:40.653Z,4.43
2023-01-28T22:14:08.265Z,2.93
2023-01-28T22:16:35.926Z,2.77
2023-01-28T22:19:03.596Z,2.70
2023-01-28T22:21:31.337Z,2.07
2023-01-28T22:23:58.723Z,2.83
2023-01-28T22:26:26.009Z,3.30
2023-01-28T22:28:53.326Z,3.20
2023-01-28T22:31:20.669Z,4.10
2023-01-28T22:33:48.083Z,2.27
2023-01-28T22:36:16.549Z,3.00
2023-01-28T22:38:45.252Z,2.53
2023-01-28T22:41:14.745Z,2.30
2023-01-28T22:43:42.257Z,3.23
2023-01-28T22:46:10.434Z,2.03
2023-01-28T22:48:38.951Z,2.67
2023-01-28T22:51:17.057Z,2.30
2023-01-28T22:53:45.597Z,2.70
2023-01-28T22:56:13.471Z,2.27
2023-01-28T22:58:41.063Z,2.07
2023-01-28T23:01:08.615Z,2.90
2023-01-28T23:03:36.322Z,3.07
2023-01-28T23:06:05.050Z,2.57
2023-01-28T23:08:33.483Z,2.53
2023-01-28T23:11:02.718Z,2.77
2023-01-28T23:13:53.555Z,2.43
2023-01-28T23:16:39.476Z,2.20
2023-01-28T23:19:26.728Z,2.23
2023-01-28T23:22:12.617Z,2.23
2023-01-28T23:24:39.935Z,2.60
2023-01-28T23:27:07.323Z,2.10
2023-01-28T23:29:34.689Z,2.40
2023-01-28T23:32:05.457Z,2.00
2023-01-28T23:34:35.131Z,2.17
2023-01-28T23:37:08.326Z,2.07
2023-01-28T23:39:36.159Z,2.13
2023-01-28T23:42:15.882Z,1.70
2023-01-28T23:44:44.103Z,2.43
2023-01-28T23:47:11.877Z,1.93
2023-01-28T23:49:39.864Z,3.27
2023-01-28T23:52:07.824Z,1.73
2023-01-28T23:54:36.100Z,2.23
2023-01-28T23:57:04.509Z,2.00
2023-01-28T23:59:32.127Z,1.63
